sensor_id;sensor_type;location;lat;lon;timestamp;P1;durP1;ratioP1;P2;durP2;ratioP2
39452;SDS011;25154;-33.684;151.102;2022-07-29T00:01:13;2.70;;;0.85;;
39452;SDS011;25154;-33.684;151.102;2022-07-29T00:06:17;4.63;;;1.10;;
39452;SDS011;25154;-33.684;151.102;2022-07-29T00:11:23;5.10;;;1.23;;
39452;SDS011;25154;-33.684;151.102;2022-07-29T00:16:26;2.75;;;0.90;;
39452;SDS011;25154;-33.684;151.102;2022-07-29T00:21:29;4.32;;;1.10;;
39452;SDS011;25154;-33.684;151.102;2022-07-29T00:26:32;4.03;;;1.15;;
39452;SDS011;25154;-33.684;151.102;2022-07-29T00:31:35;7.43;;;1.20;;
39452;SDS011;25154;-33.684;151.102;2022-07-29T00:36:38;4.88;;;1.10;;
39452;SDS011;25154;-33.684;151.102;2022-07-29T00:41:41;4.05;;;0.93;;
39452;SDS011;25154;-33.684;151.102;2022-07-29T00:46:43;4.53;;;1.13;;
39452;SDS011;25154;-33.684;151.102;2022-07-29T00:51:46;6.18;;;1.35;;
39452;SDS011;25154;-33.684;151.102;2022-07-29T00:56:51;3.53;;;1.08;;
39452;SDS011;25154;-33.684;151.102;2022-07-29T01:01:54;4.90;;;1.33;;
39452;SDS011;25154;-33.684;151.102;2022-07-29T01:06:57;5.53;;;1.10;;
39452;SDS011;25154;-33.684;151.102;2022-07-29T01:12:02;2.08;;;0.80;;
39452;SDS011;25154;-33.684;151.102;2022-07-29T01:17:09;3.92;;;1.30;;
39452;SDS011;25154;-33.684;151.102;2022-07-29T01:32:53;2.58;;;0.98;;
39452;SDS011;25154;-33.684;151.102;2022-07-29T01:43:27;5.13;;;1.10;;
39452;SDS011;25154;-33.684;151.102;2022-07-29T01:48:55;3.80;;;1.08;;
39452;SDS011;25154;-33.684;151.102;2022-07-29T01:59:26;3.22;;;1.10;;
39452;SDS011;25154;-33.684;151.102;2022-07-29T02:04:31;3.45;;;1.10;;
39452;SDS011;25154;-33.684;151.102;2022-07-29T02:09:36;3.67;;;1.15;;
39452;SDS011;25154;-33.684;151.102;2022-07-29T02:14:46;4.82;;;1.10;;
39452;SDS011;25154;-33.684;151.102;2022-07-29T02:19:52;3.47;;;1.05;;
39452;SDS011;25154;-33.684;151.102;2022-07-29T02:24:58;3.15;;;1.02;;
39452;SDS011;25154;-33.684;151.102;2022-07-29T02:30:02;2.75;;;1.00;;
39452;SDS011;25154;-33.684;151.102;2022-07-29T02:35:07;6.18;;;1.48;;
39452;SDS011;25154;-33.684;151.102;2022-07-29T02:40:11;3.35;;;1.00;;
39452;SDS011;25154;-33.684;151.102;2022-07-29T02:45:19;3.33;;;1.10;;
39452;SDS011;25154;-33.684;151.102;2022-07-29T02:50:37;2.65;;;0.80;;
39452;SDS011;25154;-33.684;151.102;2022-07-29T02:55:48;1.67;;;0.80;;
39452;SDS011;25154;-33.684;151.102;2022-07-29T03:01:02;2.10;;;0.95;;
39452;SDS011;25154;-33.684;151.102;2022-07-29T03:06:09;2.20;;;0.85;;
39452;SDS011;25154;-33.684;151.102;2022-07-29T03:11:15;4.43;;;0.98;;
39452;SDS011;25154;-33.684;151.102;2022-07-29T03:16:19;2.40;;;0.98;;
39452;SDS011;25154;-33.684;151.102;2022-07-29T03:21:24;1.95;;;1.13;;
39452;SDS011;25154;-33.684;151.102;2022-07-29T03:26:27;1.92;;;0.90;;
39452;SDS011;25154;-33.684;151.102;2022-07-29T03:31:30;2.60;;;0.80;;
39452;SDS011;25154;-33.684;151.102;2022-07-29T03:36:32;2.28;;;1.10;;
39452;SDS011;25154;-33.684;151.102;2022-07-29T03:41:35;3.05;;;1.10;;
39452;SDS011;25154;-33.684;151.102;2022-07-29T03:46:40;3.30;;;1.17;;
39452;SDS011;25154;-33.684;151.102;2022-07-29T03:51:44;2.13;;;1.10;;
39452;SDS011;25154;-33.684;151.102;2022-07-29T03:56:48;2.80;;;1.00;;
39452;SDS011;25154;-33.684;151.102;2022-07-29T04:01:54;2.15;;;1.00;;
39452;SDS011;25154;-33.684;151.102;2022-07-29T04:06:58;2.88;;;1.05;;
39452;SDS011;25154;-33.684;151.102;2022-07-29T04:12:01;3.63;;;1.60;;
39452;SDS011;25154;-33.684;151.102;2022-07-29T04:17:04;2.25;;;0.98;;
39452;SDS011;25154;-33.684;151.102;2022-07-29T04:22:07;1.20;;;0.60;;
39452;SDS011;25154;-33.684;151.102;2022-07-29T04:27:09;3.47;;;0.70;;
39452;SDS011;25154;-33.684;151.102;2022-07-29T04:32:12;2.10;;;0.95;;
39452;SDS011;25154;-33.684;151.102;2022-07-29T04:37:15;1.63;;;0.80;;
39452;SDS011;25154;-33.684;151.102;2022-07-29T04:42:18;3.20;;;1.08;;
39452;SDS011;25154;-33.684;151.102;2022-07-29T04:47:20;3.42;;;1.10;;
39452;SDS011;25154;-33.684;151.102;2022-07-29T04:52:23;2.10;;;1.10;;
39452;SDS011;25154;-33.684;151.102;2022-07-29T04:57:26;4.10;;;1.40;;
39452;SDS011;25154;-33.684;151.102;2022-07-29T05:02:29;2.00;;;1.05;;
39452;SDS011;25154;-33.684;151.102;2022-07-29T05:07:31;5.47;;;1.10;;
39452;SDS011;25154;-33.684;151.102;2022-07-29T05:12:34;4.22;;;1.05;;
39452;SDS011;25154;-33.684;151.102;2022-07-29T05:17:37;3.42;;;1.00;;
39452;SDS011;25154;-33.684;151.102;2022-07-29T05:22:40;4.75;;;1.05;;
39452;SDS011;25154;-33.684;151.102;2022-07-29T05:27:42;12.38;;;1.45;;
39452;SDS011;25154;-33.684;151.102;2022-07-29T05:32:45;1.80;;;0.90;;
39452;SDS011;25154;-33.684;151.102;2022-07-29T05:37:48;2.17;;;1.13;;
39452;SDS011;25154;-33.684;151.102;2022-07-29T05:42:51;6.05;;;1.20;;
39452;SDS011;25154;-33.684;151.102;2022-07-29T05:47:54;2.67;;;1.00;;
39452;SDS011;25154;-33.684;151.102;2022-07-29T05:52:56;3.15;;;1.00;;
39452;SDS011;25154;-33.684;151.102;2022-07-29T05:57:59;1.63;;;0.82;;
39452;SDS011;25154;-33.684;151.102;2022-07-29T06:03:02;3.53;;;1.08;;
39452;SDS011;25154;-33.684;151.102;2022-07-29T06:08:04;4.80;;;1.02;;
39452;SDS011;25154;-33.684;151.102;2022-07-29T06:13:07;8.75;;;1.42;;
39452;SDS011;25154;-33.684;151.102;2022-07-29T06:18:11;8.07;;;1.00;;
39452;SDS011;25154;-33.684;151.102;2022-07-29T06:23:14;5.72;;;1.10;;
39452;SDS011;25154;-33.684;151.102;2022-07-29T06:28:17;5.07;;;1.58;;
39452;SDS011;25154;-33.684;151.102;2022-07-29T06:33:20;4.20;;;0.90;;
39452;SDS011;25154;-33.684;151.102;2022-07-29T06:38:22;2.78;;;1.00;;
39452;SDS011;25154;-33.684;151.102;2022-07-29T06:48:36;4.18;;;1.10;;
39452;SDS011;25154;-33.684;151.102;2022-07-29T06:53:39;2.08;;;1.00;;
39452;SDS011;25154;-33.684;151.102;2022-07-29T06:58:42;2.55;;;1.15;;
39452;SDS011;25154;-33.684;151.102;2022-07-29T07:03:44;4.68;;;1.02;;
39452;SDS011;25154;-33.684;151.102;2022-07-29T07:08:48;4.45;;;1.10;;
39452;SDS011;25154;-33.684;151.102;2022-07-29T07:13:50;4.82;;;1.27;;
39452;SDS011;25154;-33.684;151.102;2022-07-29T07:18:53;10.77;;;3.20;;
39452;SDS011;25154;-33.684;151.102;2022-07-29T07:23:56;3.97;;;1.63;;
39452;SDS011;25154;-33.684;151.102;2022-07-29T07:28:59;9.02;;;3.28;;
39452;SDS011;25154;-33.684;151.102;2022-07-29T07:34:02;7.68;;;3.30;;
39452;SDS011;25154;-33.684;151.102;2022-07-29T07:39:05;8.23;;;3.10;;
39452;SDS011;25154;-33.684;151.102;2022-07-29T07:44:08;3.58;;;1.85;;
39452;SDS011;25154;-33.684;151.102;2022-07-29T07:49:10;7.47;;;1.42;;
39452;SDS011;25154;-33.684;151.102;2022-07-29T07:54:13;3.63;;;1.35;;
39452;SDS011;25154;-33.684;151.102;2022-07-29T07:59:16;7.72;;;1.73;;
39452;SDS011;25154;-33.684;151.102;2022-07-29T08:04:19;4.78;;;1.50;;
39452;SDS011;25154;-33.684;151.102;2022-07-29T08:09:22;9.13;;;1.50;;
39452;SDS011;25154;-33.684;151.102;2022-07-29T08:14:25;6.25;;;1.63;;
39452;SDS011;25154;-33.684;151.102;2022-07-29T08:19:28;6.57;;;2.38;;
39452;SDS011;25154;-33.684;151.102;2022-07-29T08:24:31;10.80;;;2.60;;
39452;SDS011;25154;-33.684;151.102;2022-07-29T08:30:09;11.02;;;2.53;;
39452;SDS011;25154;-33.684;151.102;2022-07-29T08:35:12;6.88;;;2.08;;
39452;SDS011;25154;-33.684;151.102;2022-07-29T08:40:15;12.10;;;2.47;;
39452;SDS011;25154;-33.684;151.102;2022-07-29T08:45:18;6.20;;;1.90;;
39452;SDS011;25154;-33.684;151.102;2022-07-29T08:50:21;4.20;;;1.75;;
39452;SDS011;25154;-33.684;151.102;2022-07-29T08:55:24;3.85;;;1.70;;
39452;SDS011;25154;-33.684;151.102;2022-07-29T09:00:28;6.45;;;2.00;;
39452;SDS011;25154;-33.684;151.102;2022-07-29T09:05:32;5.18;;;2.10;;
39452;SDS011;25154;-33.684;151.102;2022-07-29T09:10:35;7.65;;;2.78;;
39452;SDS011;25154;-33.684;151.102;2022-07-29T09:15:38;10.10;;;2.88;;
39452;SDS011;25154;-33.684;151.102;2022-07-29T09:20:40;8.25;;;2.28;;
39452;SDS011;25154;-33.684;151.102;2022-07-29T09:26:12;9.20;;;2.05;;
39452;SDS011;25154;-33.684;151.102;2022-07-29T09:31:14;6.65;;;2.35;;
39452;SDS011;25154;-33.684;151.102;2022-07-29T09:36:17;10.63;;;2.17;;
39452;SDS011;25154;-33.684;151.102;2022-07-29T09:41:20;5.65;;;2.13;;
39452;SDS011;25154;-33.684;151.102;2022-07-29T09:46:23;8.90;;;2.70;;
39452;SDS011;25154;-33.684;151.102;2022-07-29T09:51:27;12.13;;;4.75;;
39452;SDS011;25154;-33.684;151.102;2022-07-29T09:56:40;10.10;;;4.28;;
39452;SDS011;25154;-33.684;151.102;2022-07-29T10:01:43;14.23;;;4.88;;
39452;SDS011;25154;-33.684;151.102;2022-07-29T10:06:56;16.08;;;4.20;;
39452;SDS011;25154;-33.684;151.102;2022-07-29T10:12:04;11.27;;;3.78;;
39452;SDS011;25154;-33.684;151.102;2022-07-29T10:17:10;12.60;;;3.72;;
39452;SDS011;25154;-33.684;151.102;2022-07-29T10:22:13;10.38;;;5.00;;
39452;SDS011;25154;-33.684;151.102;2022-07-29T10:27:16;13.82;;;5.60;;
39452;SDS011;25154;-33.684;151.102;2022-07-29T10:42:58;15.95;;;8.45;;
39452;SDS011;25154;-33.684;151.102;2022-07-29T10:48:16;13.75;;;7.47;;
39452;SDS011;25154;-33.684;151.102;2022-07-29T10:53:19;12.93;;;7.22;;
39452;SDS011;25154;-33.684;151.102;2022-07-29T10:58:24;11.63;;;5.78;;
39452;SDS011;25154;-33.684;151.102;2022-07-29T11:03:46;15.68;;;6.07;;
39452;SDS011;25154;-33.684;151.102;2022-07-29T11:25:36;10.95;;;4.40;;
39452;SDS011;25154;-33.684;151.102;2022-07-29T11:30:51;9.07;;;3.85;;
39452;SDS011;25154;-33.684;151.102;2022-07-29T11:41:27;7.57;;;2.53;;
39452;SDS011;25154;-33.684;151.102;2022-07-29T11:46:49;10.43;;;2.85;;
39452;SDS011;25154;-33.684;151.102;2022-07-29T11:51:53;8.25;;;2.88;;
39452;SDS011;25154;-33.684;151.102;2022-07-29T11:56:57;5.63;;;2.28;;
39452;SDS011;25154;-33.684;151.102;2022-07-29T12:02:01;7.07;;;2.83;;
39452;SDS011;25154;-33.684;151.102;2022-07-29T12:07:06;13.25;;;4.03;;
39452;SDS011;25154;-33.684;151.102;2022-07-29T12:12:09;14.77;;;5.10;;
39452;SDS011;25154;-33.684;151.102;2022-07-29T12:17:31;14.25;;;5.97;;
39452;SDS011;25154;-33.684;151.102;2022-07-29T12:22:36;12.70;;;5.45;;
39452;SDS011;25154;-33.684;151.102;2022-07-29T12:27:41;16.67;;;6.65;;
39452;SDS011;25154;-33.684;151.102;2022-07-29T12:32:46;14.68;;;6.43;;
39452;SDS011;25154;-33.684;151.102;2022-07-29T12:37:49;16.20;;;6.15;;
39452;SDS011;25154;-33.684;151.102;2022-07-29T12:43:13;10.00;;;3.85;;
39452;SDS011;25154;-33.684;151.102;2022-07-29T12:48:18;7.10;;;2.70;;
39452;SDS011;25154;-33.684;151.102;2022-07-29T12:53:38;6.22;;;2.50;;
39452;SDS011;25154;-33.684;151.102;2022-07-29T12:58:41;8.65;;;2.92;;
39452;SDS011;25154;-33.684;151.102;2022-07-29T13:03:49;10.73;;;2.95;;
39452;SDS011;25154;-33.684;151.102;2022-07-29T13:09:01;7.70;;;2.92;;
39452;SDS011;25154;-33.684;151.102;2022-07-29T13:19:40;8.55;;;3.03;;
39452;SDS011;25154;-33.684;151.102;2022-07-29T13:29:56;18.67;;;5.80;;
39452;SDS011;25154;-33.684;151.102;2022-07-29T13:35:02;12.20;;;5.38;;
39452;SDS011;25154;-33.684;151.102;2022-07-29T13:40:07;11.13;;;4.25;;
39452;SDS011;25154;-33.684;151.102;2022-07-29T13:45:10;10.32;;;4.82;;
39452;SDS011;25154;-33.684;151.102;2022-07-29T13:50:13;9.73;;;5.40;;
39452;SDS011;25154;-33.684;151.102;2022-07-29T13:55:16;11.55;;;5.38;;
39452;SDS011;25154;-33.684;151.102;2022-07-29T14:00:19;10.18;;;4.82;;
39452;SDS011;25154;-33.684;151.102;2022-07-29T14:05:21;8.63;;;4.20;;
39452;SDS011;25154;-33.684;151.102;2022-07-29T14:10:25;10.30;;;4.93;;
39452;SDS011;25154;-33.684;151.102;2022-07-29T14:15:28;7.72;;;3.70;;
39452;SDS011;25154;-33.684;151.102;2022-07-29T14:20:31;11.57;;;3.30;;
39452;SDS011;25154;-33.684;151.102;2022-07-29T14:25:33;15.43;;;4.18;;
39452;SDS011;25154;-33.684;151.102;2022-07-29T14:30:36;7.22;;;3.00;;
39452;SDS011;25154;-33.684;151.102;2022-07-29T14:35:39;6.80;;;2.70;;
39452;SDS011;25154;-33.684;151.102;2022-07-29T14:40:42;7.78;;;2.55;;
39452;SDS011;25154;-33.684;151.102;2022-07-29T14:45:44;7.15;;;2.58;;
39452;SDS011;25154;-33.684;151.102;2022-07-29T14:50:47;9.75;;;3.22;;
39452;SDS011;25154;-33.684;151.102;2022-07-29T14:55:50;9.70;;;3.95;;
39452;SDS011;25154;-33.684;151.102;2022-07-29T15:00:53;8.73;;;2.75;;
39452;SDS011;25154;-33.684;151.102;2022-07-29T15:05:56;13.07;;;3.47;;
39452;SDS011;25154;-33.684;151.102;2022-07-29T15:10:58;6.20;;;2.15;;
39452;SDS011;25154;-33.684;151.102;2022-07-29T15:16:01;8.18;;;3.45;;
39452;SDS011;25154;-33.684;151.102;2022-07-29T15:21:06;12.38;;;3.15;;
39452;SDS011;25154;-33.684;151.102;2022-07-29T15:26:08;8.82;;;3.13;;
39452;SDS011;25154;-33.684;151.102;2022-07-29T15:31:11;5.78;;;2.60;;
39452;SDS011;25154;-33.684;151.102;2022-07-29T15:36:14;5.72;;;3.13;;
39452;SDS011;25154;-33.684;151.102;2022-07-29T15:41:17;7.45;;;3.13;;
39452;SDS011;25154;-33.684;151.102;2022-07-29T15:46:20;10.15;;;2.92;;
39452;SDS011;25154;-33.684;151.102;2022-07-29T15:51:40;7.30;;;2.60;;
39452;SDS011;25154;-33.684;151.102;2022-07-29T15:56:43;6.03;;;3.22;;
39452;SDS011;25154;-33.684;151.102;2022-07-29T16:01:46;7.85;;;3.25;;
39452;SDS011;25154;-33.684;151.102;2022-07-29T16:06:49;7.25;;;3.08;;
39452;SDS011;25154;-33.684;151.102;2022-07-29T16:11:52;7.10;;;2.38;;
39452;SDS011;25154;-33.684;151.102;2022-07-29T16:16:55;7.30;;;2.58;;
39452;SDS011;25154;-33.684;151.102;2022-07-29T16:21:58;7.32;;;2.88;;
39452;SDS011;25154;-33.684;151.102;2022-07-29T16:27:01;7.28;;;3.03;;
39452;SDS011;25154;-33.684;151.102;2022-07-29T16:32:04;7.90;;;2.53;;
39452;SDS011;25154;-33.684;151.102;2022-07-29T16:37:07;5.55;;;2.10;;
39452;SDS011;25154;-33.684;151.102;2022-07-29T16:42:10;9.82;;;2.75;;
39452;SDS011;25154;-33.684;151.102;2022-07-29T16:47:13;5.00;;;2.35;;
39452;SDS011;25154;-33.684;151.102;2022-07-29T16:52:16;4.95;;;2.15;;
39452;SDS011;25154;-33.684;151.102;2022-07-29T16:57:19;6.85;;;2.03;;
39452;SDS011;25154;-33.684;151.102;2022-07-29T17:02:22;4.72;;;1.73;;
39452;SDS011;25154;-33.684;151.102;2022-07-29T17:07:25;4.57;;;1.80;;
39452;SDS011;25154;-33.684;151.102;2022-07-29T17:12:27;4.45;;;1.73;;
39452;SDS011;25154;-33.684;151.102;2022-07-29T17:17:31;8.27;;;2.08;;
39452;SDS011;25154;-33.684;151.102;2022-07-29T17:22:34;5.45;;;2.33;;
39452;SDS011;25154;-33.684;151.102;2022-07-29T17:27:38;6.03;;;2.03;;
39452;SDS011;25154;-33.684;151.102;2022-07-29T17:32:42;9.73;;;2.20;;
39452;SDS011;25154;-33.684;151.102;2022-07-29T17:37:45;4.90;;;2.25;;
39452;SDS011;25154;-33.684;151.102;2022-07-29T17:42:47;6.82;;;2.03;;
39452;SDS011;25154;-33.684;151.102;2022-07-29T17:47:50;5.53;;;2.03;;
39452;SDS011;25154;-33.684;151.102;2022-07-29T17:52:53;6.00;;;2.30;;
39452;SDS011;25154;-33.684;151.102;2022-07-29T17:57:55;7.50;;;2.58;;
39452;SDS011;25154;-33.684;151.102;2022-07-29T18:02:58;10.10;;;2.10;;
39452;SDS011;25154;-33.684;151.102;2022-07-29T18:08:01;6.90;;;1.85;;
39452;SDS011;25154;-33.684;151.102;2022-07-29T18:13:03;4.72;;;1.90;;
39452;SDS011;25154;-33.684;151.102;2022-07-29T18:18:07;5.15;;;2.10;;
39452;SDS011;25154;-33.684;151.102;2022-07-29T18:23:10;4.90;;;1.60;;
39452;SDS011;25154;-33.684;151.102;2022-07-29T18:28:13;6.88;;;1.92;;
39452;SDS011;25154;-33.684;151.102;2022-07-29T18:33:16;5.15;;;1.60;;
39452;SDS011;25154;-33.684;151.102;2022-07-29T18:38:19;4.32;;;1.73;;
39452;SDS011;25154;-33.684;151.102;2022-07-29T18:43:22;5.00;;;1.85;;
39452;SDS011;25154;-33.684;151.102;2022-07-29T18:48:25;6.30;;;1.67;;
39452;SDS011;25154;-33.684;151.102;2022-07-29T18:53:28;6.10;;;1.55;;
39452;SDS011;25154;-33.684;151.102;2022-07-29T18:58:30;4.45;;;1.67;;
39452;SDS011;25154;-33.684;151.102;2022-07-29T19:03:33;6.15;;;1.58;;
39452;SDS011;25154;-33.684;151.102;2022-07-29T19:08:36;6.28;;;1.38;;
39452;SDS011;25154;-33.684;151.102;2022-07-29T19:13:39;6.88;;;1.48;;
39452;SDS011;25154;-33.684;151.102;2022-07-29T19:18:41;6.10;;;1.67;;
39452;SDS011;25154;-33.684;151.102;2022-07-29T19:23:44;6.65;;;1.55;;
39452;SDS011;25154;-33.684;151.102;2022-07-29T19:28:46;6.82;;;1.60;;
39452;SDS011;25154;-33.684;151.102;2022-07-29T19:33:49;6.60;;;1.42;;
39452;SDS011;25154;-33.684;151.102;2022-07-29T19:38:52;3.42;;;1.25;;
39452;SDS011;25154;-33.684;151.102;2022-07-29T19:43:56;6.20;;;1.80;;
39452;SDS011;25154;-33.684;151.102;2022-07-29T19:48:58;5.88;;;1.95;;
39452;SDS011;25154;-33.684;151.102;2022-07-29T19:54:01;10.23;;;1.20;;
39452;SDS011;25154;-33.684;151.102;2022-07-29T19:59:03;4.30;;;1.52;;
39452;SDS011;25154;-33.684;151.102;2022-07-29T20:04:05;5.90;;;1.92;;
39452;SDS011;25154;-33.684;151.102;2022-07-29T20:09:08;5.55;;;1.58;;
39452;SDS011;25154;-33.684;151.102;2022-07-29T20:14:10;7.57;;;1.50;;
39452;SDS011;25154;-33.684;151.102;2022-07-29T20:19:12;7.60;;;1.90;;
39452;SDS011;25154;-33.684;151.102;2022-07-29T20:24:15;5.10;;;1.40;;
39452;SDS011;25154;-33.684;151.102;2022-07-29T20:29:18;7.75;;;1.90;;
39452;SDS011;25154;-33.684;151.102;2022-07-29T20:34:22;4.05;;;1.60;;
39452;SDS011;25154;-33.684;151.102;2022-07-29T20:39:24;3.25;;;1.30;;
39452;SDS011;25154;-33.684;151.102;2022-07-29T20:44:27;3.03;;;1.45;;
39452;SDS011;25154;-33.684;151.102;2022-07-29T20:49:31;5.22;;;1.35;;
39452;SDS011;25154;-33.684;151.102;2022-07-29T20:54:35;4.47;;;1.42;;
39452;SDS011;25154;-33.684;151.102;2022-07-29T20:59:39;3.58;;;1.45;;
39452;SDS011;25154;-33.684;151.102;2022-07-29T21:04:43;5.28;;;1.42;;
39452;SDS011;25154;-33.684;151.102;2022-07-29T21:09:47;5.93;;;1.30;;
39452;SDS011;25154;-33.684;151.102;2022-07-29T21:14:50;6.25;;;1.42;;
39452;SDS011;25154;-33.684;151.102;2022-07-29T21:19:54;7.72;;;1.60;;
39452;SDS011;25154;-33.684;151.102;2022-07-29T21:24:56;8.75;;;1.55;;
39452;SDS011;25154;-33.684;151.102;2022-07-29T21:30:00;4.53;;;1.60;;
39452;SDS011;25154;-33.684;151.102;2022-07-29T21:35:03;2.95;;;1.15;;
39452;SDS011;25154;-33.684;151.102;2022-07-29T21:40:05;3.28;;;1.30;;
39452;SDS011;25154;-33.684;151.102;2022-07-29T21:45:08;5.05;;;1.60;;
39452;SDS011;25154;-33.684;151.102;2022-07-29T21:50:12;10.48;;;1.95;;
39452;SDS011;25154;-33.684;151.102;2022-07-29T21:55:15;7.72;;;1.50;;
39452;SDS011;25154;-33.684;151.102;2022-07-29T22:00:17;6.30;;;1.60;;
39452;SDS011;25154;-33.684;151.102;2022-07-29T22:05:20;2.30;;;1.00;;
39452;SDS011;25154;-33.684;151.102;2022-07-29T22:10:24;4.63;;;1.35;;
39452;SDS011;25154;-33.684;151.102;2022-07-29T22:15:28;3.78;;;1.30;;
39452;SDS011;25154;-33.684;151.102;2022-07-29T22:20:31;5.68;;;1.40;;
39452;SDS011;25154;-33.684;151.102;2022-07-29T22:25:34;2.75;;;1.15;;
39452;SDS011;25154;-33.684;151.102;2022-07-29T22:30:36;4.25;;;1.25;;
39452;SDS011;25154;-33.684;151.102;2022-07-29T22:35:38;3.80;;;1.17;;
39452;SDS011;25154;-33.684;151.102;2022-07-29T22:40:41;5.57;;;1.30;;
39452;SDS011;25154;-33.684;151.102;2022-07-29T22:45:43;4.18;;;1.20;;
39452;SDS011;25154;-33.684;151.102;2022-07-29T22:50:45;2.90;;;1.38;;
39452;SDS011;25154;-33.684;151.102;2022-07-29T22:55:48;2.78;;;1.10;;
39452;SDS011;25154;-33.684;151.102;2022-07-29T23:00:50;3.83;;;1.10;;
39452;SDS011;25154;-33.684;151.102;2022-07-29T23:05:52;4.65;;;1.48;;
39452;SDS011;25154;-33.684;151.102;2022-07-29T23:10:55;6.05;;;1.20;;
39452;SDS011;25154;-33.684;151.102;2022-07-29T23:15:57;11.93;;;2.38;;
39452;SDS011;25154;-33.684;151.102;2022-07-29T23:21:00;7.70;;;1.42;;
39452;SDS011;25154;-33.684;151.102;2022-07-29T23:26:03;3.10;;;1.30;;
39452;SDS011;25154;-33.684;151.102;2022-07-29T23:31:05;6.55;;;1.30;;
39452;SDS011;25154;-33.684;151.102;2022-07-29T23:36:07;2.92;;;1.20;;
39452;SDS011;25154;-33.684;151.102;2022-07-29T23:41:10;3.65;;;1.20;;
39452;SDS011;25154;-33.684;151.102;2022-07-29T23:46:12;5.03;;;1.48;;
39452;SDS011;25154;-33.684;151.102;2022-07-29T23:51:15;5.10;;;1.63;;
39452;SDS011;25154;-33.684;151.102;2022-07-29T23:56:18;6.45;;;1.35;;
